sensor_id;sensor_type;location;lat;lon;timestamp;P1;P2;P0
57037;PMS5003;59942;49.304;8.256;2022-11-18T03:33:22;42.20;42.00;36.00
57037;PMS5003;59942;49.304;8.256;2022-11-18T03:36:49;39.60;39.60;35.20
57037;PMS5003;59942;49.304;8.256;2022-11-18T03:40:24;43.40;42.00;36.00
57037;PMS5003;59942;49.304;8.256;2022-11-18T03:46:58;42.00;42.00;36.00
57037;PMS5003;59942;49.304;8.256;2022-11-18T03:50:33;39.60;39.60;35.20
57037;PMS5003;59942;49.304;8.256;2022-11-18T03:59:58;44.20;43.60;38.00
57037;PMS5003;59942;49.304;8.256;2022-11-18T04:03:13;42.00;42.00;36.80
57037;PMS5003;59942;49.304;8.256;2022-11-18T04:06:32;37.60;37.60;34.00
57037;PMS5003;59942;49.304;8.256;2022-11-18T04:16:15;39.40;39.40;34.80
57037;PMS5003;59942;49.304;8.256;2022-11-18T04:19:01;36.20;36.20;33.20
57037;PMS5003;59942;49.304;8.256;2022-11-18T04:21:54;36.20;36.20;33.20
57037;PMS5003;59942;49.304;8.256;2022-11-18T04:24:47;36.60;36.60;33.60
57037;PMS5003;59942;49.304;8.256;2022-11-18T04:27:46;34.40;34.40;33.00
57037;PMS5003;59942;49.304;8.256;2022-11-18T04:30:23;39.20;39.20;34.40
57037;PMS5003;59942;49.304;8.256;2022-11-18T04:32:53;38.60;38.60;34.80
57037;PMS5003;59942;49.304;8.256;2022-11-18T04:35:25;44.20;43.60;38.00
57037;PMS5003;59942;49.304;8.256;2022-11-18T04:37:56;51.60;48.60;41.40
57037;PMS5003;59942;49.304;8.256;2022-11-18T04:40:23;42.00;41.80;36.40
57037;PMS5003;59942;49.304;8.256;2022-11-18T04:42:50;39.60;39.60;34.80
57037;PMS5003;59942;49.304;8.256;2022-11-18T04:45:23;39.00;39.00;34.00
57037;PMS5003;59942;49.304;8.256;2022-11-18T04:48:01;39.40;39.40;34.80
57037;PMS5003;59942;49.304;8.256;2022-11-18T04:50:46;39.40;39.40;34.80
57037;PMS5003;59942;49.304;8.256;2022-11-18T04:57:20;36.40;36.40;33.40
57037;PMS5003;59942;49.304;8.256;2022-11-18T05:20:10;34.00;34.00;33.00
57037;PMS5003;59942;49.304;8.256;2022-11-18T05:23:56;37.40;37.40;33.40
57037;PMS5003;59942;49.304;8.256;2022-11-18T05:31:22;42.00;41.80;36.40
57037;PMS5003;59942;49.304;8.256;2022-11-18T05:39:17;43.00;43.00;37.00
57037;PMS5003;59942;49.304;8.256;2022-11-18T05:46:21;40.80;40.00;36.00
57037;PMS5003;59942;49.304;8.256;2022-11-18T05:53:38;44.80;44.20;38.20
57037;PMS5003;59942;49.304;8.256;2022-11-18T05:56:55;59.00;51.80;43.80
57037;PMS5003;59942;49.304;8.256;2022-11-18T06:03:29;38.60;38.60;34.20
57037;PMS5003;59942;49.304;8.256;2022-11-18T06:06:00;37.80;37.80;34.00
57037;PMS5003;59942;49.304;8.256;2022-11-18T06:08:29;39.00;39.00;34.00
57037;PMS5003;59942;49.304;8.256;2022-11-18T06:11:02;37.00;37.00;34.00
57037;PMS5003;59942;49.304;8.256;2022-11-18T06:13:31;36.60;36.60;33.60
57037;PMS5003;59942;49.304;8.256;2022-11-18T06:16:02;36.40;36.20;33.20
57037;PMS5003;59942;49.304;8.256;2022-11-18T06:18:30;44.80;39.40;34.40
57037;PMS5003;59942;49.304;8.256;2022-11-18T06:20:59;54.80;47.00;39.20
57037;PMS5003;59942;49.304;8.256;2022-11-18T06:23:29;53.80;46.20;39.20
57037;PMS5003;59942;49.304;8.256;2022-11-18T06:26:00;52.80;42.40;36.40
57037;PMS5003;59942;49.304;8.256;2022-11-18T06:28:28;47.60;42.40;36.60
57037;PMS5003;59942;49.304;8.256;2022-11-18T06:30:55;46.40;45.00;36.80
57037;PMS5003;59942;49.304;8.256;2022-11-18T06:33:22;41.60;40.80;36.00
57037;PMS5003;59942;49.304;8.256;2022-11-18T06:35:49;43.00;40.00;35.20
57037;PMS5003;59942;49.304;8.256;2022-11-18T06:38:16;43.60;42.80;37.40
57037;PMS5003;59942;49.304;8.256;2022-11-18T06:40:43;40.40;39.20;34.40
57037;PMS5003;59942;49.304;8.256;2022-11-18T06:43:11;43.40;39.60;35.20
57037;PMS5003;59942;49.304;8.256;2022-11-18T06:45:57;39.80;39.80;35.60
57037;PMS5003;59942;49.304;8.256;2022-11-18T06:48:46;39.60;39.60;35.20
57037;PMS5003;59942;49.304;8.256;2022-11-18T06:51:13;45.40;45.00;39.00
57037;PMS5003;59942;49.304;8.256;2022-11-18T06:53:40;40.80;39.00;34.00
57037;PMS5003;59942;49.304;8.256;2022-11-18T06:56:08;47.80;46.40;40.00
57037;PMS5003;59942;49.304;8.256;2022-11-18T06:58:37;56.20;48.00;39.00
57037;PMS5003;59942;49.304;8.256;2022-11-18T07:01:11;207.40;156.00;76.00
57037;PMS5003;59942;49.304;8.256;2022-11-18T07:03:39;160.20;122.20;67.40
57037;PMS5003;59942;49.304;8.256;2022-11-18T07:06:07;272.00;201.67;94.00
57037;PMS5003;59942;49.304;8.256;2022-11-18T07:08:35;202.75;156.25;82.25
57037;PMS5003;59942;49.304;8.256;2022-11-18T07:11:03;109.20;76.00;49.80
57037;PMS5003;59942;49.304;8.256;2022-11-18T07:13:32;73.40;59.80;45.40
57037;PMS5003;59942;49.304;8.256;2022-11-18T07:18:35;48.20;44.60;37.00
57037;PMS5003;59942;49.304;8.256;2022-11-18T07:21:03;50.80;45.60;38.20
57037;PMS5003;59942;49.304;8.256;2022-11-18T07:23:33;49.20;44.40;37.00
57037;PMS5003;59942;49.304;8.256;2022-11-18T07:26:01;38.80;37.60;34.00
57037;PMS5003;59942;49.304;8.256;2022-11-18T07:28:28;48.60;45.00;38.20
57037;PMS5003;59942;49.304;8.256;2022-11-18T07:31:02;42.00;42.00;36.00
57037;PMS5003;59942;49.304;8.256;2022-11-18T07:33:31;40.60;40.60;35.20
57037;PMS5003;59942;49.304;8.256;2022-11-18T07:36:02;38.40;38.40;34.40
57037;PMS5003;59942;49.304;8.256;2022-11-18T07:38:34;41.80;40.20;35.60
57037;PMS5003;59942;49.304;8.256;2022-11-18T07:41:06;42.40;42.40;36.80
57037;PMS5003;59942;49.304;8.256;2022-11-18T07:43:38;45.60;44.80;38.40
57037;PMS5003;59942;49.304;8.256;2022-11-18T07:46:25;66.80;53.20;44.80
57037;PMS5003;59942;49.304;8.256;2022-11-18T07:48:59;39.60;37.40;34.00
57037;PMS5003;59942;49.304;8.256;2022-11-18T07:51:29;41.20;41.20;36.00
57037;PMS5003;59942;49.304;8.256;2022-11-18T07:53:57;43.20;41.80;36.40
57037;PMS5003;59942;49.304;8.256;2022-11-18T07:56:24;42.00;40.20;35.40
57037;PMS5003;59942;49.304;8.256;2022-11-18T07:58:52;37.40;37.40;34.00
57037;PMS5003;59942;49.304;8.256;2022-11-18T08:01:21;44.40;44.00;38.00
57037;PMS5003;59942;49.304;8.256;2022-11-18T08:03:50;48.40;46.60;40.40
57037;PMS5003;59942;49.304;8.256;2022-11-18T08:06:17;43.00;43.00;37.00
57037;PMS5003;59942;49.304;8.256;2022-11-18T08:08:45;42.20;40.80;36.00
57037;PMS5003;59942;49.304;8.256;2022-11-18T08:11:13;43.00;40.40;36.00
57037;PMS5003;59942;49.304;8.256;2022-11-18T08:13:48;42.20;41.60;36.00
57037;PMS5003;59942;49.304;8.256;2022-11-18T08:16:17;41.20;40.00;35.60
57037;PMS5003;59942;49.304;8.256;2022-11-18T08:18:48;42.20;42.20;36.20
57037;PMS5003;59942;49.304;8.256;2022-11-18T08:21:16;41.80;41.60;36.00
57037;PMS5003;59942;49.304;8.256;2022-11-18T08:24:02;44.60;43.80;37.20
57037;PMS5003;59942;49.304;8.256;2022-11-18T08:26:29;39.00;39.00;34.80
57037;PMS5003;59942;49.304;8.256;2022-11-18T08:28:56;38.60;36.40;33.40
57037;PMS5003;59942;49.304;8.256;2022-11-18T08:31:24;41.60;41.40;36.40
57037;PMS5003;59942;49.304;8.256;2022-11-18T08:33:59;43.00;40.80;35.80
57037;PMS5003;59942;49.304;8.256;2022-11-18T08:36:29;40.00;40.00;36.00
57037;PMS5003;59942;49.304;8.256;2022-11-18T08:38:59;44.40;43.80;38.20
57037;PMS5003;59942;49.304;8.256;2022-11-18T08:41:31;39.40;39.40;34.80
57037;PMS5003;59942;49.304;8.256;2022-11-18T08:44:00;40.80;40.80;36.00
57037;PMS5003;59942;49.304;8.256;2022-11-18T08:46:28;41.20;39.20;35.00
57037;PMS5003;59942;49.304;8.256;2022-11-18T08:48:56;40.80;40.80;36.00
57037;PMS5003;59942;49.304;8.256;2022-11-18T08:51:23;37.40;37.40;34.00
57037;PMS5003;59942;49.304;8.256;2022-11-18T08:53:51;36.40;36.40;33.40
57037;PMS5003;59942;49.304;8.256;2022-11-18T08:56:18;43.00;42.40;37.00
57037;PMS5003;59942;49.304;8.256;2022-11-18T08:58:46;42.20;42.20;36.20
57037;PMS5003;59942;49.304;8.256;2022-11-18T09:01:13;35.60;35.60;33.00
57037;PMS5003;59942;49.304;8.256;2022-11-18T09:03:40;41.20;41.20;35.80
57037;PMS5003;59942;49.304;8.256;2022-11-18T09:06:12;39.00;39.00;34.00
57037;PMS5003;59942;49.304;8.256;2022-11-18T09:08:52;43.80;43.20;37.60
57037;PMS5003;59942;49.304;8.256;2022-11-18T09:11:23;43.60;41.80;36.40
57037;PMS5003;59942;49.304;8.256;2022-11-18T09:13:55;45.00;45.00;39.00
57037;PMS5003;59942;49.304;8.256;2022-11-18T09:16:44;38.80;38.80;34.40
57037;PMS5003;59942;49.304;8.256;2022-11-18T09:19:13;36.00;36.00;33.00
57037;PMS5003;59942;49.304;8.256;2022-11-18T09:22:00;37.40;37.40;34.00
57037;PMS5003;59942;49.304;8.256;2022-11-18T09:24:27;40.80;40.80;36.00
57037;PMS5003;59942;49.304;8.256;2022-11-18T09:26:54;40.20;39.40;34.80
57037;PMS5003;59942;49.304;8.256;2022-11-18T09:29:21;40.60;40.60;35.40
57037;PMS5003;59942;49.304;8.256;2022-11-18T09:31:52;37.40;37.40;34.00
57037;PMS5003;59942;49.304;8.256;2022-11-18T09:34:20;40.40;40.40;36.00
57037;PMS5003;59942;49.304;8.256;2022-11-18T09:36:48;45.60;44.80;38.40
57037;PMS5003;59942;49.304;8.256;2022-11-18T09:39:15;40.40;40.40;36.00
57037;PMS5003;59942;49.304;8.256;2022-11-18T09:41:43;37.00;36.60;33.60
57037;PMS5003;59942;49.304;8.256;2022-11-18T09:47:31;37.80;37.80;34.00
57037;PMS5003;59942;49.304;8.256;2022-11-18T09:50:04;41.20;41.20;36.00
57037;PMS5003;59942;49.304;8.256;2022-11-18T09:55:41;41.40;41.40;36.20
57037;PMS5003;59942;49.304;8.256;2022-11-18T09:58:11;39.40;39.40;34.80
57037;PMS5003;59942;49.304;8.256;2022-11-18T10:00:43;43.00;42.00;36.00
57037;PMS5003;59942;49.304;8.256;2022-11-18T10:03:19;43.80;43.60;37.60
57037;PMS5003;59942;49.304;8.256;2022-11-18T10:05:55;50.20;47.00;40.40
57037;PMS5003;59942;49.304;8.256;2022-11-18T10:08:38;63.00;55.60;46.00
57037;PMS5003;59942;49.304;8.256;2022-11-18T10:11:36;44.00;43.60;37.60
57037;PMS5003;59942;49.304;8.256;2022-11-18T10:25:52;42.00;42.00;36.00
57037;PMS5003;59942;49.304;8.256;2022-11-18T10:30:49;45.60;45.00;38.60
57037;PMS5003;59942;49.304;8.256;2022-11-18T10:56:52;45.60;45.00;38.60
57037;PMS5003;59942;49.304;8.256;2022-11-18T10:59:26;43.00;43.00;36.40
57037;PMS5003;59942;49.304;8.256;2022-11-18T11:02:02;42.00;42.00;36.00
57037;PMS5003;59942;49.304;8.256;2022-11-18T11:04:57;42.00;42.00;36.00
57037;PMS5003;59942;49.304;8.256;2022-11-18T11:07:34;45.20;44.60;38.60
57037;PMS5003;59942;49.304;8.256;2022-11-18T11:12:35;45.00;45.00;39.00
57037;PMS5003;59942;49.304;8.256;2022-11-18T11:15:14;43.20;43.20;37.20
57037;PMS5003;59942;49.304;8.256;2022-11-18T11:17:47;43.80;43.80;37.80
57037;PMS5003;59942;49.304;8.256;2022-11-18T11:20:39;52.40;47.80;40.80
57037;PMS5003;59942;49.304;8.256;2022-11-18T11:23:08;43.00;42.80;36.80
57037;PMS5003;59942;49.304;8.256;2022-11-18T11:25:43;45.00;44.60;38.20
57037;PMS5003;59942;49.304;8.256;2022-11-18T11:29:01;44.20;44.20;37.80
57037;PMS5003;59942;49.304;8.256;2022-11-18T11:35:01;42.20;40.80;36.00
57037;PMS5003;59942;49.304;8.256;2022-11-18T11:46:36;44.60;44.20;38.00
57037;PMS5003;59942;49.304;8.256;2022-11-18T12:23:22;39.00;39.00;34.00
57037;PMS5003;59942;49.304;8.256;2022-11-18T12:31:52;40.00;40.00;36.00
57037;PMS5003;59942;49.304;8.256;2022-11-18T12:37:36;60.40;53.60;45.20
57037;PMS5003;59942;49.304;8.256;2022-11-18T12:40:46;40.00;39.20;34.40
57037;PMS5003;59942;49.304;8.256;2022-11-18T12:51:58;40.00;40.00;36.00
57037;PMS5003;59942;49.304;8.256;2022-11-18T12:57:49;44.60;44.60;38.60
57037;PMS5003;59942;49.304;8.256;2022-11-18T13:02:56;45.00;44.60;38.20
57037;PMS5003;59942;49.304;8.256;2022-11-18T13:05:29;41.00;41.00;35.80
57037;PMS5003;59942;49.304;8.256;2022-11-18T13:08:03;39.00;39.00;34.00
57037;PMS5003;59942;49.304;8.256;2022-11-18T13:10:54;46.60;45.00;39.00
57037;PMS5003;59942;49.304;8.256;2022-11-18T13:13:50;47.20;45.00;39.00
57037;PMS5003;59942;49.304;8.256;2022-11-18T13:16:39;44.60;44.20;38.20
57037;PMS5003;59942;49.304;8.256;2022-11-18T13:19:41;42.40;42.40;36.40
57037;PMS5003;59942;49.304;8.256;2022-11-18T13:22:15;43.40;43.40;37.00
57037;PMS5003;59942;49.304;8.256;2022-11-18T13:25:28;39.20;39.20;34.40
57037;PMS5003;59942;49.304;8.256;2022-11-18T13:30:55;40.80;40.80;36.00
57037;PMS5003;59942;49.304;8.256;2022-11-18T13:33:28;48.00;45.40;39.40
57037;PMS5003;59942;49.304;8.256;2022-11-18T13:36:20;46.20;45.40;39.00
57037;PMS5003;59942;49.304;8.256;2022-11-18T13:38:58;41.60;41.60;36.40
57037;PMS5003;59942;49.304;8.256;2022-11-18T13:41:31;39.20;39.20;34.40
57037;PMS5003;59942;49.304;8.256;2022-11-18T13:46:50;40.60;39.20;34.40
57037;PMS5003;59942;49.304;8.256;2022-11-18T13:50:00;40.80;40.40;36.00
57037;PMS5003;59942;49.304;8.256;2022-11-18T13:52:26;43.40;43.00;37.00
57037;PMS5003;59942;49.304;8.256;2022-11-18T13:54:57;45.20;45.00;37.40
57037;PMS5003;59942;49.304;8.256;2022-11-18T13:57:27;51.80;48.20;40.40
57037;PMS5003;59942;49.304;8.256;2022-11-18T13:59:55;44.80;42.20;36.20
57037;PMS5003;59942;49.304;8.256;2022-11-18T14:02:31;47.00;44.20;37.40
57037;PMS5003;59942;49.304;8.256;2022-11-18T14:05:03;44.80;43.80;36.60
57037;PMS5003;59942;49.304;8.256;2022-11-18T14:07:32;52.80;48.20;40.20
57037;PMS5003;59942;49.304;8.256;2022-11-18T14:10:03;46.40;43.40;36.80
57037;PMS5003;59942;49.304;8.256;2022-11-18T14:12:33;51.80;48.00;39.00
57037;PMS5003;59942;49.304;8.256;2022-11-18T14:15:11;53.60;46.00;39.40
57037;PMS5003;59942;49.304;8.256;2022-11-18T14:18:13;39.00;39.00;34.00
57037;PMS5003;59942;49.304;8.256;2022-11-18T14:20:57;45.00;45.00;37.40
57037;PMS5003;59942;49.304;8.256;2022-11-18T14:23:29;40.00;40.00;36.00
57037;PMS5003;59942;49.304;8.256;2022-11-18T14:26:00;39.00;39.00;34.00
57037;PMS5003;59942;49.304;8.256;2022-11-18T14:28:37;47.00;44.40;38.40
57037;PMS5003;59942;49.304;8.256;2022-11-18T14:36:50;41.40;40.20;35.60
57037;PMS5003;59942;49.304;8.256;2022-11-18T14:41:53;46.80;42.40;36.20
57037;PMS5003;59942;49.304;8.256;2022-11-18T14:44:25;43.40;42.40;36.20
57037;PMS5003;59942;49.304;8.256;2022-11-18T14:46:57;42.80;42.80;36.80
57037;PMS5003;59942;49.304;8.256;2022-11-18T14:49:26;41.40;41.40;36.20
57037;PMS5003;59942;49.304;8.256;2022-11-18T14:51:57;41.60;40.60;35.40
57037;PMS5003;59942;49.304;8.256;2022-11-18T14:54:28;41.20;41.20;36.00
57037;PMS5003;59942;49.304;8.256;2022-11-18T14:56:57;46.00;42.80;36.80
57037;PMS5003;59942;49.304;8.256;2022-11-18T14:59:28;40.00;40.00;35.60
57037;PMS5003;59942;49.304;8.256;2022-11-18T15:01:55;39.40;39.00;34.00
57037;PMS5003;59942;49.304;8.256;2022-11-18T15:04:24;41.60;41.60;36.00
57037;PMS5003;59942;49.304;8.256;2022-11-18T15:06:51;40.00;40.00;36.00
57037;PMS5003;59942;49.304;8.256;2022-11-18T15:09:19;63.40;55.60;46.40
57037;PMS5003;59942;49.304;8.256;2022-11-18T15:11:47;46.00;44.80;38.80
57037;PMS5003;59942;49.304;8.256;2022-11-18T15:14:14;46.20;45.20;38.80
57037;PMS5003;59942;49.304;8.256;2022-11-18T15:16:42;42.60;42.60;36.60
57037;PMS5003;59942;49.304;8.256;2022-11-18T15:19:11;39.60;39.60;35.20
57037;PMS5003;59942;49.304;8.256;2022-11-18T15:21:41;41.20;40.40;36.00
57037;PMS5003;59942;49.304;8.256;2022-11-18T15:24:09;40.40;40.40;36.00
57037;PMS5003;59942;49.304;8.256;2022-11-18T15:26:40;44.40;40.00;36.00
57037;PMS5003;59942;49.304;8.256;2022-11-18T15:29:22;40.00;40.00;36.00
57037;PMS5003;59942;49.304;8.256;2022-11-18T15:31:50;43.60;43.20;37.60
57037;PMS5003;59942;49.304;8.256;2022-11-18T15:34:18;42.00;42.00;36.00
57037;PMS5003;59942;49.304;8.256;2022-11-18T15:36:46;39.80;38.60;34.00
57037;PMS5003;59942;49.304;8.256;2022-11-18T15:39:14;37.00;37.00;34.00
57037;PMS5003;59942;49.304;8.256;2022-11-18T15:41:42;56.40;51.60;43.60
57037;PMS5003;59942;49.304;8.256;2022-11-18T15:44:10;39.00;39.00;34.00
57037;PMS5003;59942;49.304;8.256;2022-11-18T15:46:37;39.20;39.20;34.40
57037;PMS5003;59942;49.304;8.256;2022-11-18T15:49:05;38.20;37.40;34.00
57037;PMS5003;59942;49.304;8.256;2022-11-18T15:51:35;44.80;42.40;36.40
57037;PMS5003;59942;49.304;8.256;2022-11-18T15:54:02;39.20;39.20;34.00
57037;PMS5003;59942;49.304;8.256;2022-11-18T15:56:30;54.60;47.80;40.40
57037;PMS5003;59942;49.304;8.256;2022-11-18T16:01:36;50.60;47.80;41.20
57037;PMS5003;59942;49.304;8.256;2022-11-18T16:04:15;42.00;42.00;36.00
57037;PMS5003;59942;49.304;8.256;2022-11-18T16:06:44;55.80;50.00;42.40
57037;PMS5003;59942;49.304;8.256;2022-11-18T16:09:12;39.40;39.40;34.40
57037;PMS5003;59942;49.304;8.256;2022-11-18T16:11:40;64.80;55.40;45.80
57037;PMS5003;59942;49.304;8.256;2022-11-18T16:14:26;40.00;39.00;34.00
57037;PMS5003;59942;49.304;8.256;2022-11-18T16:16:54;43.00;43.00;36.40
57037;PMS5003;59942;49.304;8.256;2022-11-18T16:19:23;44.00;39.80;34.80
57037;PMS5003;59942;49.304;8.256;2022-11-18T16:21:53;44.20;43.80;37.80
57037;PMS5003;59942;49.304;8.256;2022-11-18T16:24:22;40.40;38.20;34.00
57037;PMS5003;59942;49.304;8.256;2022-11-18T16:26:54;40.00;40.00;36.00
57037;PMS5003;59942;49.304;8.256;2022-11-18T16:29:22;43.80;42.40;36.40
57037;PMS5003;59942;49.304;8.256;2022-11-18T16:31:50;42.40;42.20;36.80
57037;PMS5003;59942;49.304;8.256;2022-11-18T16:34:22;39.00;39.00;34.80
57037;PMS5003;59942;49.304;8.256;2022-11-18T16:36:52;40.00;40.00;36.00
57037;PMS5003;59942;49.304;8.256;2022-11-18T16:39:21;37.40;37.40;34.00
57037;PMS5003;59942;49.304;8.256;2022-11-18T16:41:52;49.00;44.60;38.20
57037;PMS5003;59942;49.304;8.256;2022-11-18T16:44:20;46.80;42.20;36.20
57037;PMS5003;59942;49.304;8.256;2022-11-18T16:46:51;41.80;41.80;36.40
57037;PMS5003;59942;49.304;8.256;2022-11-18T16:49:23;39.20;39.20;34.40
57037;PMS5003;59942;49.304;8.256;2022-11-18T16:51:52;46.80;44.80;38.40
57037;PMS5003;59942;49.304;8.256;2022-11-18T16:54:23;42.20;42.20;36.20
57037;PMS5003;59942;49.304;8.256;2022-11-18T16:56:55;38.80;38.80;34.40
57037;PMS5003;59942;49.304;8.256;2022-11-18T16:59:29;44.60;43.60;36.80
57037;PMS5003;59942;49.304;8.256;2022-11-18T17:02:04;64.40;52.00;42.00
57037;PMS5003;59942;49.304;8.256;2022-11-18T17:05:03;46.60;44.80;37.60
57037;PMS5003;59942;49.304;8.256;2022-11-18T17:07:52;46.80;44.60;38.20
57037;PMS5003;59942;49.304;8.256;2022-11-18T17:10:28;46.80;45.80;39.20
57037;PMS5003;59942;49.304;8.256;2022-11-18T17:13:04;40.00;40.00;36.00
57037;PMS5003;59942;49.304;8.256;2022-11-18T17:15:45;42.60;41.20;36.00
57037;PMS5003;59942;49.304;8.256;2022-11-18T17:18:37;48.60;47.00;40.40
57037;PMS5003;59942;49.304;8.256;2022-11-18T17:21:12;61.40;54.00;45.40
57037;PMS5003;59942;49.304;8.256;2022-11-18T17:23:48;40.00;40.00;36.00
57037;PMS5003;59942;49.304;8.256;2022-11-18T17:26:19;36.80;36.80;33.80
57037;PMS5003;59942;49.304;8.256;2022-11-18T17:29:05;63.40;55.80;46.00
57037;PMS5003;59942;49.304;8.256;2022-11-18T17:31:37;40.40;40.40;36.00
57037;PMS5003;59942;49.304;8.256;2022-11-18T17:34:32;40.20;39.40;34.40
57037;PMS5003;59942;49.304;8.256;2022-11-18T17:37:02;42.60;41.40;36.20
57037;PMS5003;59942;49.304;8.256;2022-11-18T17:42:33;47.00;42.40;36.00
57037;PMS5003;59942;49.304;8.256;2022-11-18T17:45:15;36.20;36.20;33.20
57037;PMS5003;59942;49.304;8.256;2022-11-18T17:47:47;42.00;42.00;36.00
57037;PMS5003;59942;49.304;8.256;2022-11-18T17:50:14;47.80;45.40;38.20
57037;PMS5003;59942;49.304;8.256;2022-11-18T17:53:03;45.20;44.60;38.20
57037;PMS5003;59942;49.304;8.256;2022-11-18T17:55:33;52.40;48.40;41.20
57037;PMS5003;59942;49.304;8.256;2022-11-18T17:58:12;41.60;39.40;34.80
57037;PMS5003;59942;49.304;8.256;2022-11-18T18:04:05;21.00;21.00;21.00
57037;PMS5003;59942;49.304;8.256;2022-11-18T18:06:52;39.40;39.00;34.00
57037;PMS5003;59942;49.304;8.256;2022-11-18T18:09:25;39.80;38.20;34.00
57037;PMS5003;59942;49.304;8.256;2022-11-18T18:12:02;41.40;41.40;36.20
57037;PMS5003;59942;49.304;8.256;2022-11-18T18:14:57;39.40;39.40;34.40
57037;PMS5003;59942;49.304;8.256;2022-11-18T18:17:34;41.60;41.60;36.00
57037;PMS5003;59942;49.304;8.256;2022-11-18T18:20:23;40.00;40.00;36.00
57037;PMS5003;59942;49.304;8.256;2022-11-18T18:23:13;36.40;36.40;33.40
57037;PMS5003;59942;49.304;8.256;2022-11-18T18:25:54;42.40;42.40;36.40
57037;PMS5003;59942;49.304;8.256;2022-11-18T18:28:24;42.00;42.00;36.00
57037;PMS5003;59942;49.304;8.256;2022-11-18T18:31:07;39.20;39.20;34.40
57037;PMS5003;59942;49.304;8.256;2022-11-18T18:34:06;39.80;39.80;35.60
57037;PMS5003;59942;49.304;8.256;2022-11-18T18:36:49;42.00;41.80;36.40
57037;PMS5003;59942;49.304;8.256;2022-11-18T18:39:27;40.80;39.80;35.60
57037;PMS5003;59942;49.304;8.256;2022-11-18T18:42:00;39.20;39.20;34.00
57037;PMS5003;59942;49.304;8.256;2022-11-18T18:44:39;42.80;41.00;36.20
57037;PMS5003;59942;49.304;8.256;2022-11-18T18:47:37;40.80;39.60;35.20
57037;PMS5003;59942;49.304;8.256;2022-11-18T18:50:30;40.40;40.40;36.00
57037;PMS5003;59942;49.304;8.256;2022-11-18T18:53:07;41.20;41.20;36.00
57037;PMS5003;59942;49.304;8.256;2022-11-18T18:55:54;36.40;36.40;33.40
57037;PMS5003;59942;49.304;8.256;2022-11-18T18:58:42;44.80;42.00;36.00
57037;PMS5003;59942;49.304;8.256;2022-11-18T19:01:25;59.40;53.00;44.20
57037;PMS5003;59942;49.304;8.256;2022-11-18T19:04:00;42.60;40.00;34.40
57037;PMS5003;59942;49.304;8.256;2022-11-18T19:06:53;40.80;40.80;35.60
57037;PMS5003;59942;49.304;8.256;2022-11-18T19:09:27;40.40;40.40;36.00
57037;PMS5003;59942;49.304;8.256;2022-11-18T19:12:20;39.60;38.20;34.00
57037;PMS5003;59942;49.304;8.256;2022-11-18T19:15:17;39.80;39.60;35.20
57037;PMS5003;59942;49.304;8.256;2022-11-18T19:18:09;42.00;42.00;36.20
57037;PMS5003;59942;49.304;8.256;2022-11-18T19:20:41;42.40;42.40;36.00
57037;PMS5003;59942;49.304;8.256;2022-11-18T19:23:19;45.40;44.80;38.40
57037;PMS5003;59942;49.304;8.256;2022-11-18T19:26:03;41.20;40.00;36.00
57037;PMS5003;59942;49.304;8.256;2022-11-18T19:28:34;38.00;38.00;34.40
57037;PMS5003;59942;49.304;8.256;2022-11-18T19:31:15;39.80;39.80;35.60
57037;PMS5003;59942;49.304;8.256;2022-11-18T19:34:01;39.40;39.40;34.40
57037;PMS5003;59942;49.304;8.256;2022-11-18T19:37:03;43.00;42.00;36.00
57037;PMS5003;59942;49.304;8.256;2022-11-18T19:39:42;36.20;36.20;33.20
57037;PMS5003;59942;49.304;8.256;2022-11-18T19:42:10;42.40;40.80;36.00
57037;PMS5003;59942;49.304;8.256;2022-11-18T19:44:42;41.20;41.20;36.00
57037;PMS5003;59942;49.304;8.256;2022-11-18T19:47:34;42.00;40.00;36.00
57037;PMS5003;59942;49.304;8.256;2022-11-18T19:50:16;45.00;43.00;36.00
57037;PMS5003;59942;49.304;8.256;2022-11-18T19:52:49;41.20;40.20;35.40
57037;PMS5003;59942;49.304;8.256;2022-11-18T19:55:22;43.80;43.20;37.60
57037;PMS5003;59942;49.304;8.256;2022-11-18T19:58:15;39.60;37.00;34.00
57037;PMS5003;59942;49.304;8.256;2022-11-18T20:01:13;42.40;42.00;36.00
57037;PMS5003;59942;49.304;8.256;2022-11-18T20:03:45;50.40;47.00;40.20
57037;PMS5003;59942;49.304;8.256;2022-11-18T20:06:16;41.40;41.40;36.20
57037;PMS5003;59942;49.304;8.256;2022-11-18T20:08:55;36.20;36.20;33.20
57037;PMS5003;59942;49.304;8.256;2022-11-18T20:11:39;40.40;40.40;36.00
57037;PMS5003;59942;49.304;8.256;2022-11-18T20:14:19;42.00;42.00;36.00
57037;PMS5003;59942;49.304;8.256;2022-11-18T20:17:01;53.80;45.80;39.40
57037;PMS5003;59942;49.304;8.256;2022-11-18T20:19:28;44.20;44.00;38.00
57037;PMS5003;59942;49.304;8.256;2022-11-18T20:21:58;43.20;42.00;36.00
57037;PMS5003;59942;49.304;8.256;2022-11-18T20:24:26;44.60;42.80;36.20
57037;PMS5003;59942;49.304;8.256;2022-11-18T20:26:53;42.80;41.80;35.40
57037;PMS5003;59942;49.304;8.256;2022-11-18T20:32:15;39.00;39.00;34.00
57037;PMS5003;59942;49.304;8.256;2022-11-18T20:34:46;40.00;39.40;34.80
57037;PMS5003;59942;49.304;8.256;2022-11-18T20:37:19;43.60;43.20;37.60
57037;PMS5003;59942;49.304;8.256;2022-11-18T20:39:53;43.00;42.80;37.20
57037;PMS5003;59942;49.304;8.256;2022-11-18T20:42:21;39.20;36.80;33.40
57037;PMS5003;59942;49.304;8.256;2022-11-18T20:45:12;40.80;39.80;35.20
57037;PMS5003;59942;49.304;8.256;2022-11-18T20:48:02;39.20;39.00;34.00
57037;PMS5003;59942;49.304;8.256;2022-11-18T20:50:29;42.40;40.80;35.60
57037;PMS5003;59942;49.304;8.256;2022-11-18T20:52:56;40.80;39.40;34.80
57037;PMS5003;59942;49.304;8.256;2022-11-18T20:55:38;50.20;47.00;40.20
57037;PMS5003;59942;49.304;8.256;2022-11-18T20:58:05;39.80;39.00;34.00
57037;PMS5003;59942;49.304;8.256;2022-11-18T21:00:38;38.20;38.20;34.00
57037;PMS5003;59942;49.304;8.256;2022-11-18T21:03:10;40.60;39.80;35.60
57037;PMS5003;59942;49.304;8.256;2022-11-18T21:05:40;48.60;47.00;40.40
57037;PMS5003;59942;49.304;8.256;2022-11-18T21:08:09;41.20;41.00;35.80
57037;PMS5003;59942;49.304;8.256;2022-11-18T21:10:41;40.20;40.20;35.60
57037;PMS5003;59942;49.304;8.256;2022-11-18T21:13:30;52.00;46.60;39.60
57037;PMS5003;59942;49.304;8.256;2022-11-18T21:16:20;46.20;43.40;37.40
57037;PMS5003;59942;49.304;8.256;2022-11-18T21:18:57;46.60;42.80;36.20
57037;PMS5003;59942;49.304;8.256;2022-11-18T21:24:27;45.00;44.40;38.40
57037;PMS5003;59942;49.304;8.256;2022-11-18T21:27:24;47.00;44.60;38.20
57037;PMS5003;59942;49.304;8.256;2022-11-18T21:29:51;42.20;39.00;34.00
57037;PMS5003;59942;49.304;8.256;2022-11-18T21:35:10;40.80;40.80;36.00
57037;PMS5003;59942;49.304;8.256;2022-11-18T21:37:44;36.20;36.20;33.20
57037;PMS5003;59942;49.304;8.256;2022-11-18T21:40:16;37.00;37.00;34.00
57037;PMS5003;59942;49.304;8.256;2022-11-18T21:42:55;42.60;39.20;34.40
57037;PMS5003;59942;49.304;8.256;2022-11-18T21:45:22;44.60;40.80;36.00